Cuyahoga Heights, Ohio
Current Conditions -  °F | °C
As of 12:53 AM on Saturday 29 Nov 2014 (Local Time) from KBKL Reporting Station
Overcast Overcast  
Wind Chill: 22°   Ceiling: 7500
Heat Index: 30°   Visibility: 10mi
Dew Point: 19°   Wind: 9mph
Humidity: 64%   Direction: 160°SSE
Pressure: 30.11"   Gusts: NA
Location:  41.4062°N, 81.6149°W
Report Text: KBKL 290553Z AUTO 16008KT 10SM OVC075 M01/M07 A3011 RMK AO2 SLP205 60000 T10111072 11006 21028 58010
Loading
Personal Weather Stations






























Interactive Weather Map New forecast layout! Learn more

10-Day Weather Forecast

Advertisements
Track Severe Weather on mobile